Time;durP1;ratioP1;P1;durP2;ratioP2;P2;SDS_P1;SDS_P2;PMS_P1;PMS_P2;Temp;Humidity;BMP_temperature;BMP_pressure;BME280_temperature;BME280_humidity;BME280_pressure;Samples;Min_cycle;Max_cycle;Signal;HPM_P1;HPM_P2
2023/08/26 00:04:04;;;;;;;13.80;8.10;;;;;;;21.61;100.00;99816.23;216264;1285;139306;-85
2023/08/26 00:09:04;;;;;;;14.20;7.40;;;;;;;21.47;100.00;99822.05;215983;1285;165476;-85
2023/08/26 00:14:05;;;;;;;10.20;6.90;;;;;;;21.40;100.00;99839.36;216367;1288;139601;-85
2023/08/26 00:19:05;;;;;;;12.60;8.20;;;;;;;21.29;100.00;99832.06;215922;1286;140792;-85
2023/08/26 00:24:06;;;;;;;11.90;8.40;;;;;;;21.21;100.00;99826.42;216410;1286;139021;-85
2023/08/26 00:29:06;;;;;;;16.40;9.80;;;;;;;21.10;100.00;99836.35;215716;1285;140664;-85
2023/08/26 00:34:07;;;;;;;12.40;8.30;;;;;;;21.00;100.00;99839.81;216237;1288;138905;-85
2023/08/26 00:39:07;;;;;;;12.60;8.20;;;;;;;20.92;100.00;99845.50;215737;1286;142634;-86
2023/08/26 00:44:07;;;;;;;12.80;9.40;;;;;;;20.83;100.00;99843.77;216043;1286;139442;-85
2023/08/26 00:49:08;;;;;;;12.60;8.70;;;;;;;20.77;100.00;99836.13;215667;1286;140836;-85
2023/08/26 00:54:09;;;;;;;16.90;9.30;;;;;;;20.68;100.00;99831.18;216132;1285;138879;-84
2023/08/26 00:59:10;;;;;;;14.40;9.00;;;;;;;20.57;100.00;99832.59;215457;1285;140076;-86
2023/08/26 01:04:11;;;;;;;14.70;9.50;;;;;;;20.50;100.00;99849.02;216034;1286;138913;-85
2023/08/26 01:09:11;;;;;;;12.20;7.90;;;;;;;20.42;100.00;99846.35;215764;1286;140815;-86
2023/08/26 01:14:36;;;;;;;17.40;10.80;;;;;;;20.35;100.00;99851.96;216157;1285;138744;-86
2023/08/26 01:19:45;;;;;;;14.00;9.60;;;;;;;20.26;100.00;99848.46;215465;1287;144735;-87
2023/08/26 01:24:46;;;;;;;12.60;8.90;;;;;;;20.17;100.00;99847.05;216015;1288;138869;-86
2023/08/26 01:29:47;;;;;;;13.40;8.30;;;;;;;20.08;100.00;99853.55;215840;1285;140894;-86
2023/08/26 01:34:52;;;;;;;13.80;10.20;;;;;;;20.01;100.00;99845.09;216017;1285;138919;-87
2023/08/26 01:40:17;;;;;;;;;;;;;;;;;;;;;
2023/08/26 01:45:19;;;;;;;16.00;9.90;;;;;;;19.92;100.00;99842.05;216294;1285;110416;-87
2023/08/26 01:50:19;;;;;;;17.40;10.30;;;;;;;19.88;100.00;99844.74;215896;1285;140209;-87
2023/08/26 01:55:20;;;;;;;12.80;9.20;;;;;;;19.81;100.00;99839.88;216079;1285;139061;-87
2023/08/26 02:00:20;;;;;;;14.60;9.40;;;;;;;19.76;100.00;99836.73;215660;1286;141008;-88
2023/08/26 02:05:21;;;;;;;13.00;8.70;;;;;;;19.70;100.00;99829.60;216048;1286;138967;-87
2023/08/26 02:10:21;;;;;;;11.50;8.00;;;;;;;19.65;100.00;99830.41;215571;1289;141972;-87
2023/08/26 02:15:22;;;;;;;16.10;10.20;;;;;;;19.63;100.00;99835.13;216273;1288;97878;-87
2023/08/26 02:20:22;;;;;;;15.70;10.40;;;;;;;19.57;100.00;99837.23;215539;1285;140793;-87
2023/08/26 02:25:23;;;;;;;13.60;9.90;;;;;;;19.53;100.00;99848.41;216223;1285;138983;-87
2023/08/26 02:30:23;;;;;;;13.90;10.20;;;;;;;19.48;100.00;99857.89;215738;1285;141076;-88
2023/08/26 02:35:24;;;;;;;12.40;9.10;;;;;;;19.43;100.00;99845.64;216199;1286;139762;-88
2023/08/26 02:40:24;;;;;;;17.70;11.80;;;;;;;19.37;100.00;99838.40;215662;1286;140838;-89
2023/08/26 02:45:24;;;;;;;14.90;10.70;;;;;;;19.34;100.00;99849.27;216347;1284;96679;-88
2023/08/26 02:50:25;;;;;;;21.50;11.20;;;;;;;19.33;100.00;99848.85;215740;1286;140955;-89
2023/08/26 02:55:25;;;;;;;14.90;10.60;;;;;;;19.29;100.00;99854.80;216223;1286;139293;-89
2023/08/26 03:00:25;;;;;;;12.50;9.40;;;;;;;19.26;100.00;99856.23;215453;1286;140579;-89
2023/08/26 03:05:26;;;;;;;14.10;10.10;;;;;;;19.22;100.00;99851.36;216026;1286;138825;-88
2023/08/26 03:10:26;;;;;;;17.10;11.00;;;;;;;19.19;100.00;99844.74;215808;1285;142291;-88
2023/08/26 03:15:28;;;;;;;14.60;9.90;;;;;;;19.16;100.00;99836.46;216175;1286;97808;-88
2023/08/26 03:20:30;;;;;;;16.20;10.80;;;;;;;19.12;100.00;99846.77;215646;1288;141450;-89
2023/08/26 03:25:30;;;;;;;14.30;10.30;;;;;;;19.09;100.00;99840.04;216161;1286;139549;-89
2023/08/26 03:30:30;;;;;;;16.90;12.20;;;;;;;19.04;100.00;99830.73;215601;1286;141359;-89
2023/08/26 03:35:31;;;;;;;15.40;10.50;;;;;;;19.00;100.00;99824.27;216401;1286;139415;-89
2023/08/26 03:40:31;;;;;;;16.40;11.70;;;;;;;18.96;100.00;99821.09;215802;1286;141071;-89
2023/08/26 03:45:32;;;;;;;18.50;11.10;;;;;;;18.92;100.00;99815.42;216222;1285;97841;-89
2023/08/26 03:50:32;;;;;;;13.30;9.60;;;;;;;18.89;100.00;99814.80;215663;1286;140805;-89
2023/08/26 03:55:36;;;;;;;13.40;9.40;;;;;;;18.86;100.00;99818.56;215881;1286;139972;-88
2023/08/26 04:00:37;;;;;;;16.30;12.10;;;;;;;18.84;100.00;99819.59;215734;1286;141690;-88
2023/08/26 04:05:38;;;;;;;14.40;10.10;;;;;;;18.83;100.00;99827.02;216486;1286;139271;-88
2023/08/26 04:10:39;;;;;;;19.40;12.70;;;;;;;18.81;100.00;99824.31;215532;1285;140774;-89
2023/08/26 04:15:39;;;;;;;18.50;14.80;;;;;;;18.79;100.00;99822.38;216160;1286;139186;-88
2023/08/26 04:20:42;;;;;;;15.50;11.70;;;;;;;18.80;100.00;99817.09;215683;1288;140786;-89
2023/08/26 04:25:43;;;;;;;21.00;12.80;;;;;;;18.79;100.00;99807.39;216371;1286;139093;-89
2023/08/26 04:30:44;;;;;;;16.40;10.80;;;;;;;18.80;100.00;99802.52;215521;1288;142086;-89
2023/08/26 04:35:45;;;;;;;18.90;13.20;;;;;;;18.80;100.00;99815.98;216241;1288;139341;-89
2023/08/26 04:40:46;;;;;;;15.50;10.60;;;;;;;18.84;100.00;99820.95;215648;1290;144994;-88
2023/08/26 04:46:13;;;;;;;;;;;;;;;;;;;;;
2023/08/26 04:51:23;;;;;;;18.20;12.70;;;;;;;18.96;100.00;99826.27;215950;1285;141822;-88
2023/08/26 04:56:27;;;;;;;18.60;12.40;;;;;;;19.07;100.00;99828.40;216394;1285;138872;-89
2023/08/26 05:01:40;;;;;;;19.10;12.60;;;;;;;19.19;100.00;99822.65;216048;1286;140815;-87
2023/08/26 05:06:41;;;;;;;17.40;11.10;;;;;;;19.35;100.00;99819.36;216008;1285;139632;-86
2023/08/26 05:11:41;;;;;;;18.00;12.10;;;;;;;19.48;100.00;99815.80;215927;1286;140765;-86
2023/08/26 05:16:41;;;;;;;15.10;10.20;;;;;;;19.59;100.00;99814.81;216366;1285;141695;-86
2023/08/26 05:21:42;;;;;;;16.60;10.90;;;;;;;19.71;100.00;99830.05;215982;1287;140644;-86
2023/08/26 05:26:43;;;;;;;14.40;8.90;;;;;;;19.79;100.00;99830.61;216465;1288;138825;-86
2023/08/26 05:31:45;;;;;;;17.10;9.60;;;;;;;19.88;100.00;99816.97;215655;1286;141321;-86
2023/08/26 05:36:46;;;;;;;12.80;9.00;;;;;;;19.98;100.00;99820.13;215964;1286;138979;-86
2023/08/26 05:41:46;;;;;;;13.40;8.50;;;;;;;20.10;100.00;99823.70;215512;1286;142129;-84
2023/08/26 05:46:47;;;;;;;14.50;8.70;;;;;;;20.24;100.00;99822.77;216068;1286;139535;-85
2023/08/26 05:51:47;;;;;;;11.60;8.10;;;;;;;20.39;100.00;99832.02;215786;1285;142138;-84
2023/08/26 05:56:47;;;;;;;19.40;9.30;;;;;;;20.52;100.00;99837.19;216098;1286;96634;-84
2023/08/26 06:01:48;;;;;;;15.00;7.70;;;;;;;20.64;100.00;99840.59;215757;1287;140908;-84
2023/08/26 06:06:48;;;;;;;13.00;7.20;;;;;;;20.78;100.00;99845.64;215985;1286;139185;-83
2023/08/26 06:11:49;;;;;;;14.80;8.30;;;;;;;20.93;100.00;99853.94;215470;1286;142259;-83
2023/08/26 06:16:50;;;;;;;11.30;6.70;;;;;;;21.08;100.00;99852.06;216213;1286;138929;-84
2023/08/26 06:21:50;;;;;;;13.30;6.50;;;;;;;21.22;100.00;99860.84;215231;1286;140805;-84
2023/08/26 06:26:50;;;;;;;13.40;5.50;;;;;;;21.34;100.00;99876.73;216264;1288;99002;-84
2023/08/26 06:31:51;;;;;;;15.50;5.60;;;;;;;21.44;100.00;99885.41;215919;1288;141792;-82
2023/08/26 06:36:51;;;;;;;10.20;4.80;;;;;;;21.56;100.00;99900.73;216105;1286;139191;-83
2023/08/26 06:41:52;;;;;;;15.30;4.90;;;;;;;21.71;100.00;99916.88;215569;1286;145116;-83
2023/08/26 06:46:52;;;;;;;14.40;5.80;;;;;;;21.83;100.00;99919.08;216206;1286;140005;-83
2023/08/26 06:51:52;;;;;;;10.60;5.10;;;;;;;21.93;100.00;99918.90;215818;1288;141473;-82
2023/08/26 06:56:53;;;;;;;13.30;5.10;;;;;;;21.98;100.00;99919.06;216131;1289;98024;-84
2023/08/26 07:01:54;;;;;;;10.20;4.30;;;;;;;22.03;100.00;99921.73;215793;1290;140803;-83
2023/08/26 07:06:54;;;;;;;11.70;4.80;;;;;;;22.07;100.00;99940.30;216082;1291;138895;-85
2023/08/26 07:11:55;;;;;;;13.40;5.40;;;;;;;22.11;100.00;99948.11;216070;1288;141524;-84
2023/08/26 07:16:55;;;;;;;10.60;5.60;;;;;;;22.16;100.00;99951.67;216101;1286;139358;-85
2023/08/26 07:22:05;;;;;;;11.10;5.90;;;;;;;22.26;99.96;99951.22;215283;1286;140900;-83
2023/08/26 07:27:05;;;;;;;11.60;5.90;;;;;;;22.39;99.78;99959.31;216003;1288;97998;-83
2023/08/26 07:32:07;;;;;;;12.90;6.30;;;;;;;22.53;99.81;99956.77;215464;1285;142350;-83
2023/08/26 07:37:09;;;;;;;14.50;6.30;;;;;;;22.68;99.46;99962.73;216136;1290;138916;-83
2023/08/26 07:42:09;;;;;;;14.40;6.40;;;;;;;22.81;99.10;99968.05;215830;1288;142268;-83
2023/08/26 07:47:24;;;;;;;11.10;6.20;;;;;;;22.88;98.27;99971.89;216091;1291;139008;-84
2023/08/26 07:52:25;;;;;;;13.30;6.30;;;;;;;22.94;97.35;99966.95;215271;1288;141451;-85
2023/08/26 07:57:25;;;;;;;12.20;6.70;;;;;;;22.97;97.18;99964.98;216388;1286;97912;-84
2023/08/26 08:02:26;;;;;;;14.70;6.30;;;;;;;23.02;97.06;99967.40;215523;1286;140267;-83
2023/08/26 08:07:26;;;;;;;11.50;6.10;;;;;;;23.05;96.63;99965.58;216253;1289;138476;-85
2023/08/26 08:12:27;;;;;;;11.70;6.00;;;;;;;23.07;96.50;99957.27;215445;1290;142181;-84
2023/08/26 08:17:27;;;;;;;16.30;7.00;;;;;;;23.13;96.19;99947.06;216296;1286;138676;-83
2023/08/26 08:22:39;;;;;;;13.00;6.50;;;;;;;23.19;96.13;99947.89;215690;1286;144608;-84
2023/08/26 08:27:40;;;;;;;12.90;6.40;;;;;;;23.27;95.87;99951.05;216342;1286;97837;-85
2023/08/26 08:32:57;;;;;;;11.00;6.90;;;;;;;23.36;95.85;99951.77;215768;1285;142447;-87
2023/08/26 08:37:58;;;;;;;13.60;7.40;;;;;;;23.50;95.44;99946.24;215934;1286;139026;-87
2023/08/26 08:43:02;;;;;;;11.30;6.70;;;;;;;23.65;95.01;99949.80;215744;1286;141357;-85
2023/08/26 08:48:02;;;;;;;15.70;6.90;;;;;;;23.76;94.28;99949.99;216532;1286;138680;-86
2023/08/26 08:53:03;;;;;;;11.00;7.00;;;;;;;23.84;93.34;99951.09;215765;1286;140991;-84
2023/08/26 08:58:04;;;;;;;13.00;7.70;;;;;;;23.88;93.37;99958.46;216244;1289;139118;-84
2023/08/26 09:03:07;;;;;;;13.40;7.10;;;;;;;23.91;93.29;99959.95;215722;1286;141175;-86
2023/08/26 09:08:09;;;;;;;17.60;7.70;;;;;;;23.91;93.68;99967.38;216263;1290;139063;-85
2023/08/26 09:13:10;;;;;;;13.90;7.70;;;;;;;23.93;93.88;99976.92;215413;1290;142278;-84
2023/08/26 09:18:15;;;;;;;15.00;7.30;;;;;;;23.92;94.32;99981.59;215859;1288;138998;-85
2023/08/26 09:23:15;;;;;;;12.40;7.30;;;;;;;23.87;95.27;99993.36;215692;1286;142253;-85
2023/08/26 09:28:16;;;;;;;14.50;7.50;;;;;;;23.79;96.34;100001.15;216262;1288;138882;-84
2023/08/26 09:33:38;;;;;;;12.70;7.30;;;;;;;23.74;97.09;99996.55;215338;1287;143522;-86
2023/08/26 09:38:41;;;;;;;15.00;8.00;;;;;;;23.74;96.94;99998.90;216089;1292;139101;-85
2023/08/26 09:43:46;;;;;;;12.60;7.30;;;;;;;23.72;97.31;99995.69;215419;1286;140077;-86
2023/08/26 09:48:48;;;;;;;13.60;7.00;;;;;;;23.73;97.09;99999.42;216216;1289;138953;-84
2023/08/26 09:53:50;;;;;;;13.80;6.90;;;;;;;23.71;96.78;99992.20;215548;1289;143185;-87
2023/08/26 09:58:56;;;;;;;14.40;7.90;;;;;;;23.77;97.11;99987.52;216270;1289;138934;-84
2023/08/26 10:04:04;;;;;;;15.10;7.50;;;;;;;23.94;97.44;99990.43;215462;1292;139840;-87
2023/08/26 10:09:27;;;;;;;13.70;7.30;;;;;;;24.09;96.76;99990.70;215781;1286;140961;-85
2023/08/26 10:14:30;;;;;;;13.60;7.60;;;;;;;24.42;97.37;99962.80;216165;1286;139056;-84
2023/08/26 10:19:31;;;;;;;13.80;6.40;;;;;;;24.82;94.03;99957.19;215635;1286;142960;-85
2023/08/26 10:24:31;;;;;;;11.90;5.90;;;;;;;25.36;91.63;99961.43;216036;1286;138992;-86
2023/08/26 10:29:32;;;;;;;12.00;6.20;;;;;;;25.77;87.13;99948.16;215522;1286;140755;-85
2023/08/26 10:34:33;;;;;;;12.80;5.40;;;;;;;26.14;86.22;99948.77;216230;1289;138739;-85
2023/08/26 10:39:34;;;;;;;10.80;5.50;;;;;;;26.66;83.53;99952.73;215871;1286;141401;-87
2023/08/26 10:44:39;;;;;;;10.00;4.60;;;;;;;27.20;83.09;99955.10;216278;1286;138672;-85
2023/08/26 10:49:40;;;;;;;11.30;5.30;;;;;;;27.62;79.35;99955.77;215919;1286;141744;-85
2023/08/26 10:54:42;;;;;;;10.90;5.20;;;;;;;27.92;78.64;99960.20;216110;1286;139519;-85
2023/08/26 10:59:44;;;;;;;9.60;4.80;;;;;;;28.12;76.63;99951.34;215373;1289;258626;-85
2023/08/26 11:04:45;;;;;;;8.60;4.90;;;;;;;28.27;75.50;99953.36;216146;1286;138747;-86
2023/08/26 11:09:45;;;;;;;9.20;5.30;;;;;;;28.50;74.95;99959.12;215868;1286;141554;-85
2023/08/26 11:14:46;;;;;;;11.60;5.50;;;;;;;28.73;73.60;99968.86;216244;1286;138174;-87
2023/08/26 11:19:46;;;;;;;10.20;5.60;;;;;;;28.92;72.39;99965.49;215662;1286;141020;-85
2023/08/26 11:24:48;;;;;;;11.60;6.50;;;;;;;29.06;72.44;99962.09;216125;1285;139754;-85
2023/08/26 11:29:49;;;;;;;11.10;5.30;;;;;;;29.39;70.98;99958.57;215632;1288;139487;-86
2023/08/26 11:34:53;;;;;;;8.40;5.00;;;;;;;29.59;70.12;99957.65;216249;1285;137963;-86
2023/08/26 11:39:59;;;;;;;11.80;5.70;;;;;;;29.72;68.43;99944.92;215944;1286;139508;-87
2023/08/26 11:45:00;;;;;;;9.50;5.30;;;;;;;29.57;66.57;99943.77;216229;1285;106118;-84
2023/08/26 11:50:00;;;;;;;9.90;5.00;;;;;;;29.47;67.11;99933.52;215610;1286;142696;-83
2023/08/26 11:55:08;;;;;;;8.30;4.50;;;;;;;29.64;65.64;99933.04;216333;1286;138877;-83
2023/08/26 12:00:16;;;;;;;8.90;4.70;;;;;;;29.89;64.08;99933.80;215670;1286;140097;-85
2023/08/26 12:05:18;;;;;;;8.70;4.50;;;;;;;30.10;64.48;99920.09;216130;1286;138597;-82
2023/08/26 12:10:18;;;;;;;8.30;4.00;;;;;;;30.38;63.17;99922.45;215349;1286;140311;-84
2023/08/26 12:15:19;;;;;;;12.20;4.10;;;;;;;30.42;61.03;99921.75;216148;1291;97963;-83
2023/08/26 12:20:30;;;;;;;9.70;4.10;;;;;;;30.60;62.47;99914.52;215492;1285;142142;-84
2023/08/26 12:25:35;;;;;;;7.30;3.90;;;;;;;30.84;60.17;99930.23;215930;1289;137848;-87
2023/08/26 12:30:40;;;;;;;8.40;4.50;;;;;;;30.78;57.89;99951.87;215726;1285;141991;-84
2023/08/26 12:35:41;;;;;;;8.50;4.30;;;;;;;30.78;58.01;99962.63;216237;1288;137849;-83
2023/08/26 12:40:47;;;;;;;8.30;3.90;;;;;;;30.51;56.72;99966.06;215761;1287;140209;-87
2023/08/26 12:45:51;;;;;;;9.80;4.10;;;;;;;30.36;57.79;99970.13;216187;1285;98012;-86
2023/08/26 12:50:51;;;;;;;7.70;4.00;;;;;;;30.24;58.10;99969.91;215623;1286;142564;-87
2023/08/26 12:55:51;;;;;;;12.80;4.50;;;;;;;30.17;58.05;99964.37;216152;1285;137908;-85
2023/08/26 13:00:52;;;;;;;6.00;3.50;;;;;;;30.02;57.69;99966.15;215778;1286;139993;-84
2023/08/26 13:05:55;;;;;;;7.30;4.20;;;;;;;29.86;58.72;99970.59;216045;1285;137851;-84
2023/08/26 13:10:56;;;;;;;9.00;4.30;;;;;;;29.86;58.94;99970.31;215630;1286;140506;-87
2023/08/26 13:15:56;;;;;;;7.50;4.40;;;;;;;29.84;58.78;99963.94;216328;1286;97861;-84
2023/08/26 13:20:57;;;;;;;7.80;4.10;;;;;;;29.78;58.84;99952.24;215729;1285;140225;-86
2023/08/26 13:25:57;;;;;;;9.40;4.60;;;;;;;29.67;59.26;99952.83;215982;1288;137715;-86
2023/08/26 13:31:01;;;;;;;10.90;4.50;;;;;;;29.33;59.12;99956.05;215672;1285;140869;-86
2023/08/26 13:36:01;;;;;;;10.70;3.90;;;;;;;29.04;59.76;99936.16;216240;1285;138603;-84
2023/08/26 13:41:02;;;;;;;9.20;3.80;;;;;;;28.82;60.27;99933.14;215762;1285;140904;-85
2023/08/26 13:46:02;;;;;;;7.80;3.80;;;;;;;28.64;61.30;99945.20;216325;1286;137967;-84
2023/08/26 13:51:02;;;;;;;8.40;4.30;;;;;;;28.46;63.13;99958.29;215529;1288;139587;-85
2023/08/26 13:56:04;;;;;;;20.00;6.90;;;;;;;28.32;66.92;99997.48;216102;1286;138286;-87
2023/08/26 14:01:12;;;;;;;15.20;6.90;;;;;;;27.74;72.43;100035.45;215533;1290;140719;-90
2023/08/26 14:12:14;;;;;;;9.70;4.80;;;;;;;26.47;79.43;100005.02;215462;1291;140852;-88
2023/08/26 14:17:15;;;;;;;10.90;5.20;;;;;;;26.22;82.70;99997.67;217425;1288;139153;-90
2023/08/26 14:22:15;;;;;;;8.30;4.40;;;;;;;26.08;84.45;99990.87;217461;1288;140985;-90
2023/08/26 14:27:16;;;;;;;6.80;4.00;;;;;;;25.96;84.58;99986.05;216506;1288;97973;-88
2023/08/26 14:32:16;;;;;;;7.30;3.60;;;;;;;25.93;86.23;99984.27;213900;1287;140034;-90
2023/08/26 14:37:19;;;;;;;6.90;3.70;;;;;;;25.86;87.39;99978.48;214424;1290;138522;-90
2023/08/26 14:42:21;;;;;;;7.50;3.70;;;;;;;25.84;87.72;99983.48;213835;1288;139935;-90
2023/08/26 14:47:31;;;;;;;8.20;3.90;;;;;;;25.79;87.56;99989.98;215065;1291;138571;-92
2023/08/26 14:52:35;;;;;;;9.20;4.10;;;;;;;25.58;89.83;99990.21;214605;1288;139874;-92
2023/08/26 14:57:35;;;;;;;8.10;4.10;;;;;;;25.31;91.14;99996.15;215459;1289;98397;-90
2023/08/26 15:02:39;;;;;;;11.60;5.30;;;;;;;25.15;91.71;99996.41;213497;1289;140164;-90
2023/08/26 15:07:40;;;;;;;10.10;4.40;;;;;;;25.01;92.92;99998.45;214258;1290;138717;-90
2023/08/26 15:12:44;;;;;;;7.80;4.60;;;;;;;24.91;92.78;100001.41;214222;1291;140596;-89
2023/08/26 15:17:45;;;;;;;8.40;4.30;;;;;;;24.75;93.29;99994.41;214990;1289;139556;-91
2023/08/26 15:22:46;;;;;;;7.20;4.30;;;;;;;24.65;94.53;99986.95;214580;1289;140138;-92
2023/08/26 15:27:46;;;;;;;12.50;5.60;;;;;;;24.51;95.31;99986.66;215952;1286;99060;-93
2023/08/26 15:32:50;;;;;;;8.40;4.70;;;;;;;24.42;95.25;99984.80;215373;1286;141632;-94
2023/08/26 15:37:50;;;;;;;8.80;4.80;;;;;;;24.37;96.03;99976.47;216480;1290;137338;-93
2023/08/26 15:42:58;;;;;;;9.10;5.00;;;;;;;24.33;96.39;99967.12;215255;1288;140134;-91
2023/08/26 15:48:03;;;;;;;10.80;6.20;;;;;;;24.30;96.69;99959.34;215616;1289;138609;-92
2023/08/26 15:53:04;;;;;;;12.40;7.00;;;;;;;24.25;96.95;99961.13;215052;1288;139370;-92
2023/08/26 15:58:08;;;;;;;13.40;7.50;;;;;;;24.17;98.61;99974.56;216107;1286;97648;-89
2023/08/26 16:03:08;;;;;;;11.10;7.60;;;;;;;24.08;99.65;99970.64;215316;1288;140720;-92
2023/08/26 16:08:09;;;;;;;12.80;7.00;;;;;;;24.01;99.75;99960.31;218153;1288;138520;-93
2023/08/26 16:13:13;;;;;;;15.70;7.60;;;;;;;23.94;99.87;99953.84;217866;1287;140705;-91
2023/08/26 16:18:13;;;;;;;14.00;7.80;;;;;;;23.93;99.97;99965.27;214999;1287;138724;-91
2023/08/26 16:23:14;;;;;;;11.40;7.60;;;;;;;23.90;100.00;99984.96;214283;1286;141434;-91
2023/08/26 16:28:14;;;;;;;16.00;8.10;;;;;;;23.82;100.00;99999.48;214609;1287;97960;-88
2023/08/26 16:33:15;;;;;;;13.60;8.50;;;;;;;23.78;100.00;99991.71;213830;1287;140594;-91
2023/08/26 16:38:16;;;;;;;14.60;7.90;;;;;;;23.75;100.00;100000.95;214542;1287;138762;-88
2023/08/26 16:43:17;;;;;;;14.30;8.10;;;;;;;23.71;100.00;99999.60;213906;1287;141113;-88
2023/08/26 16:48:18;;;;;;;11.40;7.20;;;;;;;23.64;100.00;100013.52;214219;1286;138911;-90
2023/08/26 16:53:19;;;;;;;10.40;7.30;;;;;;;23.60;100.00;100010.92;214105;1288;141813;-89
2023/08/26 16:58:20;;;;;;;10.30;7.00;;;;;;;23.57;100.00;100002.31;215401;1285;139229;-87
2023/08/26 17:03:21;;;;;;;11.80;7.10;;;;;;;23.54;100.00;99991.88;213989;1290;141611;-89
2023/08/26 17:08:23;;;;;;;11.60;7.90;;;;;;;23.50;100.00;99992.08;214765;1286;138961;-87
2023/08/26 17:13:24;;;;;;;13.60;7.70;;;;;;;23.44;100.00;99990.45;214667;1289;141966;-87
2023/08/26 17:18:25;;;;;;;12.20;7.90;;;;;;;23.38;100.00;99997.84;215749;1287;139019;-88
2023/08/26 17:23:26;;;;;;;10.20;6.80;;;;;;;23.35;100.00;100001.38;214948;1290;140707;-87
2023/08/26 17:28:26;;;;;;;11.00;7.50;;;;;;;23.30;100.00;99998.09;215704;1285;139701;-88
2023/08/26 17:33:27;;;;;;;13.50;7.30;;;;;;;23.24;100.00;99998.92;215108;1288;140631;-87
2023/08/26 17:38:27;;;;;;;14.50;8.00;;;;;;;23.18;100.00;100011.06;215342;1287;139026;-88
2023/08/26 17:43:28;;;;;;;10.80;7.80;;;;;;;23.14;100.00;99999.88;214922;1286;141947;-88
2023/08/26 17:48:29;;;;;;;13.50;7.00;;;;;;;23.10;100.00;100007.45;215687;1286;138964;-88
2023/08/26 17:53:30;;;;;;;10.40;7.40;;;;;;;22.98;100.00;100014.00;216258;1286;141821;-88
2023/08/26 17:58:30;;;;;;;13.90;8.60;;;;;;;22.87;100.00;100019.81;218311;1285;139437;-89
2023/08/26 18:03:31;;;;;;;11.90;7.70;;;;;;;22.78;100.00;100032.58;217143;1286;141360;-89
2023/08/26 18:08:31;;;;;;;12.50;7.70;;;;;;;22.69;100.00;100032.84;214575;1287;140921;-89
2023/08/26 18:13:32;;;;;;;13.60;6.90;;;;;;;22.55;100.00;100017.02;214067;1290;141277;-89
2023/08/26 18:18:32;;;;;;;12.20;6.80;;;;;;;22.47;100.00;100013.30;214813;1288;139037;-89
2023/08/26 18:23:33;;;;;;;9.90;7.30;;;;;;;22.42;100.00;100018.63;213888;1288;141846;-88
2023/08/26 18:28:34;;;;;;;11.00;6.70;;;;;;;22.33;100.00;100014.27;214650;1287;139053;-88
2023/08/26 18:33:34;;;;;;;12.10;6.60;;;;;;;22.24;100.00;100026.02;214091;1288;141264;-88
2023/08/26 18:38:34;;;;;;;12.60;6.90;;;;;;;22.19;100.00;100037.17;214427;1286;139129;-87
2023/08/26 18:43:35;;;;;;;12.60;6.90;;;;;;;22.11;100.00;100054.23;213960;1287;141592;-87
2023/08/26 18:48:36;;;;;;;15.90;9.80;;;;;;;21.98;100.00;100045.63;214522;1287;139152;-87
2023/08/26 18:53:37;;;;;;;12.40;7.40;;;;;;;21.90;100.00;100047.45;214076;1287;141325;-88
2023/08/26 18:58:40;;;;;;;13.40;8.60;;;;;;;21.79;100.00;100050.50;214801;1285;139083;-88
2023/08/26 19:03:44;;;;;;;13.30;7.80;;;;;;;21.71;100.00;100044.42;214558;1286;142540;-89
2023/08/26 19:08:47;;;;;;;13.00;8.20;;;;;;;21.64;100.00;100028.17;215192;1288;139357;-87
2023/08/26 19:14:00;;;;;;;11.70;7.50;;;;;;;21.58;100.00;100027.98;215016;1287;140014;-88
2023/08/26 19:19:03;;;;;;;12.10;7.90;;;;;;;21.51;100.00;100013.60;214637;1287;142676;-87
2023/08/26 19:24:10;;;;;;;14.00;7.90;;;;;;;21.48;100.00;100026.88;215170;1287;139203;-87
2023/08/26 19:29:21;;;;;;;14.60;9.30;;;;;;;21.47;100.00;100049.46;214906;1290;142312;-87
